sensor_id;sensor_type;location;lat;lon;timestamp;P1;durP1;ratioP1;P2;durP2;ratioP2
56927;SDS011;60850;52.502;13.426;2023-11-21T00:01:35;10.70;;;5.45;;
56927;SDS011;60850;52.502;13.426;2023-11-21T00:04:03;10.27;;;5.90;;
56927;SDS011;60850;52.502;13.426;2023-11-21T00:06:32;11.43;;;6.50;;
56927;SDS011;60850;52.502;13.426;2023-11-21T00:08:59;12.23;;;6.28;;
56927;SDS011;60850;52.502;13.426;2023-11-21T00:11:26;13.45;;;6.93;;
56927;SDS011;60850;52.502;13.426;2023-11-21T00:13:54;13.88;;;6.97;;
56927;SDS011;60850;52.502;13.426;2023-11-21T00:16:21;14.85;;;7.50;;
56927;SDS011;60850;52.502;13.426;2023-11-21T00:18:49;15.95;;;7.85;;
56927;SDS011;60850;52.502;13.426;2023-11-21T00:21:17;17.40;;;8.85;;
56927;SDS011;60850;52.502;13.426;2023-11-21T00:23:44;16.92;;;8.30;;
56927;SDS011;60850;52.502;13.426;2023-11-21T00:26:11;18.10;;;9.45;;
56927;SDS011;60850;52.502;13.426;2023-11-21T00:28:39;24.58;;;10.07;;
56927;SDS011;60850;52.502;13.426;2023-11-21T00:31:05;22.23;;;9.95;;
56927;SDS011;60850;52.502;13.426;2023-11-21T00:33:32;21.23;;;8.55;;
56927;SDS011;60850;52.502;13.426;2023-11-21T00:35:59;22.30;;;10.25;;
56927;SDS011;60850;52.502;13.426;2023-11-21T00:38:28;20.23;;;10.13;;
56927;SDS011;60850;52.502;13.426;2023-11-21T00:40:55;29.65;;;13.02;;
56927;SDS011;60850;52.502;13.426;2023-11-21T00:43:22;30.20;;;12.23;;
56927;SDS011;60850;52.502;13.426;2023-11-21T00:45:50;30.13;;;12.00;;
56927;SDS011;60850;52.502;13.426;2023-11-21T00:48:17;27.60;;;11.23;;
56927;SDS011;60850;52.502;13.426;2023-11-21T00:50:44;26.73;;;11.55;;
56927;SDS011;60850;52.502;13.426;2023-11-21T00:53:16;27.60;;;12.93;;
56927;SDS011;60850;52.502;13.426;2023-11-21T00:55:44;25.92;;;11.15;;
56927;SDS011;60850;52.502;13.426;2023-11-21T00:58:11;25.73;;;9.75;;
56927;SDS011;60850;52.502;13.426;2023-11-21T01:00:38;34.28;;;12.88;;
56927;SDS011;60850;52.502;13.426;2023-11-21T01:03:06;34.88;;;13.68;;
56927;SDS011;60850;52.502;13.426;2023-11-21T01:05:33;28.83;;;11.05;;
56927;SDS011;60850;52.502;13.426;2023-11-21T01:08:01;27.73;;;11.73;;
56927;SDS011;60850;52.502;13.426;2023-11-21T01:10:27;36.75;;;12.57;;
56927;SDS011;60850;52.502;13.426;2023-11-21T01:12:56;35.55;;;12.50;;
56927;SDS011;60850;52.502;13.426;2023-11-21T01:15:24;33.78;;;12.55;;
56927;SDS011;60850;52.502;13.426;2023-11-21T01:17:51;33.72;;;13.25;;
56927;SDS011;60850;52.502;13.426;2023-11-21T01:20:18;37.42;;;12.75;;
56927;SDS011;60850;52.502;13.426;2023-11-21T01:22:45;41.28;;;14.15;;
56927;SDS011;60850;52.502;13.426;2023-11-21T01:25:14;44.85;;;15.35;;
56927;SDS011;60850;52.502;13.426;2023-11-21T01:27:41;47.78;;;14.65;;
56927;SDS011;60850;52.502;13.426;2023-11-21T01:30:10;45.15;;;13.82;;
56927;SDS011;60850;52.502;13.426;2023-11-21T01:32:37;52.35;;;17.25;;
56927;SDS011;60850;52.502;13.426;2023-11-21T01:35:06;55.30;;;17.98;;
56927;SDS011;60850;52.502;13.426;2023-11-21T01:37:33;47.47;;;15.40;;
56927;SDS011;60850;52.502;13.426;2023-11-21T01:40:00;50.38;;;14.80;;
56927;SDS011;60850;52.502;13.426;2023-11-21T01:42:28;55.47;;;18.23;;
56927;SDS011;60850;52.502;13.426;2023-11-21T01:44:55;51.38;;;17.13;;
56927;SDS011;60850;52.502;13.426;2023-11-21T01:47:24;50.47;;;16.65;;
56927;SDS011;60850;52.502;13.426;2023-11-21T01:49:51;45.83;;;14.57;;
56927;SDS011;60850;52.502;13.426;2023-11-21T01:52:18;50.53;;;15.70;;
56927;SDS011;60850;52.502;13.426;2023-11-21T01:54:46;51.65;;;15.23;;
56927;SDS011;60850;52.502;13.426;2023-11-21T01:57:13;40.65;;;13.45;;
56927;SDS011;60850;52.502;13.426;2023-11-21T01:59:41;39.63;;;12.00;;
56927;SDS011;60850;52.502;13.426;2023-11-21T02:02:09;31.20;;;10.85;;
56927;SDS011;60850;52.502;13.426;2023-11-21T02:04:37;28.13;;;10.32;;
56927;SDS011;60850;52.502;13.426;2023-11-21T02:07:05;33.05;;;10.77;;
56927;SDS011;60850;52.502;13.426;2023-11-21T02:09:32;26.00;;;9.27;;
56927;SDS011;60850;52.502;13.426;2023-11-21T02:11:59;24.10;;;8.38;;
56927;SDS011;60850;52.502;13.426;2023-11-21T02:14:26;30.27;;;9.65;;
56927;SDS011;60850;52.502;13.426;2023-11-21T02:16:55;26.67;;;8.88;;
56927;SDS011;60850;52.502;13.426;2023-11-21T02:19:22;28.05;;;9.38;;
56927;SDS011;60850;52.502;13.426;2023-11-21T02:21:52;26.55;;;9.45;;
56927;SDS011;60850;52.502;13.426;2023-11-21T02:24:21;28.40;;;9.43;;
56927;SDS011;60850;52.502;13.426;2023-11-21T02:26:49;29.52;;;9.68;;
56927;SDS011;60850;52.502;13.426;2023-11-21T02:29:17;22.95;;;8.27;;
56927;SDS011;60850;52.502;13.426;2023-11-21T02:31:47;28.25;;;9.52;;
56927;SDS011;60850;52.502;13.426;2023-11-21T02:34:15;26.95;;;8.77;;
56927;SDS011;60850;52.502;13.426;2023-11-21T02:36:42;28.15;;;10.45;;
56927;SDS011;60850;52.502;13.426;2023-11-21T02:39:10;27.10;;;8.82;;
56927;SDS011;60850;52.502;13.426;2023-11-21T02:41:38;27.40;;;9.60;;
56927;SDS011;60850;52.502;13.426;2023-11-21T02:44:06;24.10;;;8.18;;
56927;SDS011;60850;52.502;13.426;2023-11-21T02:46:33;22.33;;;9.25;;
56927;SDS011;60850;52.502;13.426;2023-11-21T02:49:00;19.55;;;8.52;;
56927;SDS011;60850;52.502;13.426;2023-11-21T02:51:28;22.00;;;7.82;;
56927;SDS011;60850;52.502;13.426;2023-11-21T02:53:55;21.52;;;7.70;;
56927;SDS011;60850;52.502;13.426;2023-11-21T02:56:24;22.45;;;8.75;;
56927;SDS011;60850;52.502;13.426;2023-11-21T02:58:54;16.70;;;7.32;;
56927;SDS011;60850;52.502;13.426;2023-11-21T03:01:22;20.65;;;7.65;;
56927;SDS011;60850;52.502;13.426;2023-11-21T03:03:50;17.17;;;7.38;;
56927;SDS011;60850;52.502;13.426;2023-11-21T03:06:17;16.08;;;7.43;;
56927;SDS011;60850;52.502;13.426;2023-11-21T03:08:45;16.83;;;8.30;;
56927;SDS011;60850;52.502;13.426;2023-11-21T03:11:12;19.00;;;7.25;;
56927;SDS011;60850;52.502;13.426;2023-11-21T03:13:39;18.50;;;8.20;;
56927;SDS011;60850;52.502;13.426;2023-11-21T03:16:09;12.43;;;6.13;;
56927;SDS011;60850;52.502;13.426;2023-11-21T03:18:37;15.70;;;7.05;;
56927;SDS011;60850;52.502;13.426;2023-11-21T03:21:04;13.63;;;6.65;;
56927;SDS011;60850;52.502;13.426;2023-11-21T03:23:34;14.32;;;7.18;;
56927;SDS011;60850;52.502;13.426;2023-11-21T03:26:01;13.32;;;7.32;;
56927;SDS011;60850;52.502;13.426;2023-11-21T03:28:28;15.38;;;7.72;;
56927;SDS011;60850;52.502;13.426;2023-11-21T03:30:56;17.10;;;7.20;;
56927;SDS011;60850;52.502;13.426;2023-11-21T03:33:24;15.10;;;7.28;;
56927;SDS011;60850;52.502;13.426;2023-11-21T03:35:51;16.15;;;8.02;;
56927;SDS011;60850;52.502;13.426;2023-11-21T03:38:19;13.60;;;7.95;;
56927;SDS011;60850;52.502;13.426;2023-11-21T03:40:46;12.55;;;7.20;;
56927;SDS011;60850;52.502;13.426;2023-11-21T03:43:13;12.63;;;7.10;;
56927;SDS011;60850;52.502;13.426;2023-11-21T03:45:41;12.88;;;6.53;;
56927;SDS011;60850;52.502;13.426;2023-11-21T03:48:08;10.52;;;6.32;;
56927;SDS011;60850;52.502;13.426;2023-11-21T03:50:36;12.48;;;6.15;;
56927;SDS011;60850;52.502;13.426;2023-11-21T03:53:04;12.05;;;7.05;;
56927;SDS011;60850;52.502;13.426;2023-11-21T03:55:31;14.18;;;7.15;;
56927;SDS011;60850;52.502;13.426;2023-11-21T03:57:58;13.00;;;7.57;;
56927;SDS011;60850;52.502;13.426;2023-11-21T04:00:25;13.27;;;6.78;;
56927;SDS011;60850;52.502;13.426;2023-11-21T04:02:53;12.45;;;6.32;;
56927;SDS011;60850;52.502;13.426;2023-11-21T04:05:20;12.10;;;6.47;;
56927;SDS011;60850;52.502;13.426;2023-11-21T04:07:50;12.75;;;6.20;;
56927;SDS011;60850;52.502;13.426;2023-11-21T04:10:17;11.00;;;5.20;;
56927;SDS011;60850;52.502;13.426;2023-11-21T04:12:44;8.85;;;4.90;;
56927;SDS011;60850;52.502;13.426;2023-11-21T04:15:12;9.43;;;5.43;;
56927;SDS011;60850;52.502;13.426;2023-11-21T04:17:40;9.95;;;5.15;;
56927;SDS011;60850;52.502;13.426;2023-11-21T04:20:07;10.63;;;4.82;;
56927;SDS011;60850;52.502;13.426;2023-11-21T04:22:36;9.77;;;5.18;;
56927;SDS011;60850;52.502;13.426;2023-11-21T04:25:08;10.68;;;5.47;;
56927;SDS011;60850;52.502;13.426;2023-11-21T04:27:36;9.55;;;5.13;;
56927;SDS011;60850;52.502;13.426;2023-11-21T04:30:03;8.35;;;4.70;;
56927;SDS011;60850;52.502;13.426;2023-11-21T04:32:31;9.05;;;5.00;;
56927;SDS011;60850;52.502;13.426;2023-11-21T04:34:59;11.15;;;5.68;;
56927;SDS011;60850;52.502;13.426;2023-11-21T04:37:26;10.27;;;5.25;;
56927;SDS011;60850;52.502;13.426;2023-11-21T04:39:53;11.63;;;5.15;;
56927;SDS011;60850;52.502;13.426;2023-11-21T04:42:21;10.63;;;5.70;;
56927;SDS011;60850;52.502;13.426;2023-11-21T04:44:48;9.93;;;5.38;;
56927;SDS011;60850;52.502;13.426;2023-11-21T04:47:15;9.63;;;5.20;;
56927;SDS011;60850;52.502;13.426;2023-11-21T04:49:45;10.10;;;5.22;;
56927;SDS011;60850;52.502;13.426;2023-11-21T04:52:13;11.18;;;5.88;;
56927;SDS011;60850;52.502;13.426;2023-11-21T04:54:40;9.70;;;5.00;;
56927;SDS011;60850;52.502;13.426;2023-11-21T04:57:08;11.38;;;5.22;;
56927;SDS011;60850;52.502;13.426;2023-11-21T04:59:37;9.40;;;5.35;;
56927;SDS011;60850;52.502;13.426;2023-11-21T05:02:04;9.50;;;5.25;;
56927;SDS011;60850;52.502;13.426;2023-11-21T05:04:31;11.18;;;4.70;;
56927;SDS011;60850;52.502;13.426;2023-11-21T05:06:58;9.38;;;4.70;;
56927;SDS011;60850;52.502;13.426;2023-11-21T05:09:25;9.43;;;4.63;;
56927;SDS011;60850;52.502;13.426;2023-11-21T05:11:53;9.27;;;4.90;;
56927;SDS011;60850;52.502;13.426;2023-11-21T05:14:20;9.93;;;5.03;;
56927;SDS011;60850;52.502;13.426;2023-11-21T05:16:49;8.98;;;4.53;;
56927;SDS011;60850;52.502;13.426;2023-11-21T05:19:17;8.15;;;4.07;;
56927;SDS011;60850;52.502;13.426;2023-11-21T05:21:44;8.55;;;4.75;;
56927;SDS011;60850;52.502;13.426;2023-11-21T05:24:11;8.18;;;4.53;;
56927;SDS011;60850;52.502;13.426;2023-11-21T05:26:38;8.55;;;4.30;;
56927;SDS011;60850;52.502;13.426;2023-11-21T05:29:05;10.30;;;4.93;;
56927;SDS011;60850;52.502;13.426;2023-11-21T05:31:32;8.85;;;4.90;;
56927;SDS011;60850;52.502;13.426;2023-11-21T05:34:00;9.25;;;4.82;;
56927;SDS011;60850;52.502;13.426;2023-11-21T05:36:28;8.52;;;4.50;;
56927;SDS011;60850;52.502;13.426;2023-11-21T05:38:54;10.25;;;5.13;;
56927;SDS011;60850;52.502;13.426;2023-11-21T05:41:22;10.05;;;5.13;;
56927;SDS011;60850;52.502;13.426;2023-11-21T05:43:48;8.57;;;4.68;;
56927;SDS011;60850;52.502;13.426;2023-11-21T05:46:16;9.18;;;4.30;;
56927;SDS011;60850;52.502;13.426;2023-11-21T05:48:43;9.63;;;4.63;;
56927;SDS011;60850;52.502;13.426;2023-11-21T05:51:12;11.48;;;5.35;;
56927;SDS011;60850;52.502;13.426;2023-11-21T05:53:39;12.88;;;5.70;;
56927;SDS011;60850;52.502;13.426;2023-11-21T05:56:06;9.10;;;4.57;;
56927;SDS011;60850;52.502;13.426;2023-11-21T05:58:33;9.85;;;5.20;;
56927;SDS011;60850;52.502;13.426;2023-11-21T06:01:00;10.18;;;5.68;;
56927;SDS011;60850;52.502;13.426;2023-11-21T06:03:28;10.15;;;4.97;;
56927;SDS011;60850;52.502;13.426;2023-11-21T06:05:55;11.02;;;5.20;;
56927;SDS011;60850;52.502;13.426;2023-11-21T06:08:23;11.60;;;5.60;;
56927;SDS011;60850;52.502;13.426;2023-11-21T06:10:50;10.32;;;5.45;;
56927;SDS011;60850;52.502;13.426;2023-11-21T06:13:17;10.55;;;5.03;;
56927;SDS011;60850;52.502;13.426;2023-11-21T06:15:49;10.07;;;5.30;;
56927;SDS011;60850;52.502;13.426;2023-11-21T06:18:16;12.30;;;5.40;;
56927;SDS011;60850;52.502;13.426;2023-11-21T06:20:45;10.48;;;5.45;;
56927;SDS011;60850;52.502;13.426;2023-11-21T06:23:11;10.82;;;5.18;;
56927;SDS011;60850;52.502;13.426;2023-11-21T06:25:40;9.60;;;4.57;;
56927;SDS011;60850;52.502;13.426;2023-11-21T06:28:07;10.38;;;5.07;;
56927;SDS011;60850;52.502;13.426;2023-11-21T06:30:34;8.48;;;4.63;;
56927;SDS011;60850;52.502;13.426;2023-11-21T06:33:01;9.10;;;4.80;;
56927;SDS011;60850;52.502;13.426;2023-11-21T06:35:29;7.22;;;3.63;;
56927;SDS011;60850;52.502;13.426;2023-11-21T06:37:59;7.53;;;3.95;;
56927;SDS011;60850;52.502;13.426;2023-11-21T06:40:26;7.15;;;4.15;;
56927;SDS011;60850;52.502;13.426;2023-11-21T06:42:54;8.82;;;4.55;;
56927;SDS011;60850;52.502;13.426;2023-11-21T06:45:21;8.68;;;3.92;;
56927;SDS011;60850;52.502;13.426;2023-11-21T06:47:48;7.03;;;4.35;;
56927;SDS011;60850;52.502;13.426;2023-11-21T06:50:15;6.88;;;4.00;;
56927;SDS011;60850;52.502;13.426;2023-11-21T06:52:42;7.95;;;4.00;;
56927;SDS011;60850;52.502;13.426;2023-11-21T06:55:10;8.05;;;4.25;;
56927;SDS011;60850;52.502;13.426;2023-11-21T06:57:37;7.43;;;4.13;;
56927;SDS011;60850;52.502;13.426;2023-11-21T07:00:06;8.52;;;3.80;;
56927;SDS011;60850;52.502;13.426;2023-11-21T07:02:34;7.75;;;4.38;;
56927;SDS011;60850;52.502;13.426;2023-11-21T07:05:02;7.30;;;4.07;;
56927;SDS011;60850;52.502;13.426;2023-11-21T07:07:29;10.38;;;4.22;;
56927;SDS011;60850;52.502;13.426;2023-11-21T07:09:57;9.93;;;4.85;;
56927;SDS011;60850;52.502;13.426;2023-11-21T07:12:28;8.02;;;4.20;;
56927;SDS011;60850;52.502;13.426;2023-11-21T07:14:56;6.97;;;3.70;;
56927;SDS011;60850;52.502;13.426;2023-11-21T07:17:24;11.38;;;3.92;;
56927;SDS011;60850;52.502;13.426;2023-11-21T07:19:52;6.22;;;3.20;;
56927;SDS011;60850;52.502;13.426;2023-11-21T07:22:18;6.80;;;3.78;;
56927;SDS011;60850;52.502;13.426;2023-11-21T07:24:47;5.75;;;3.50;;
56927;SDS011;60850;52.502;13.426;2023-11-21T07:27:16;7.03;;;4.18;;
56927;SDS011;60850;52.502;13.426;2023-11-21T07:29:43;7.20;;;3.65;;
56927;SDS011;60850;52.502;13.426;2023-11-21T07:32:10;6.75;;;3.67;;
56927;SDS011;60850;52.502;13.426;2023-11-21T07:34:40;8.68;;;3.88;;
56927;SDS011;60850;52.502;13.426;2023-11-21T07:37:07;6.63;;;3.72;;
56927;SDS011;60850;52.502;13.426;2023-11-21T07:39:34;7.97;;;3.45;;
56927;SDS011;60850;52.502;13.426;2023-11-21T07:42:01;5.90;;;3.50;;
56927;SDS011;60850;52.502;13.426;2023-11-21T07:44:28;7.70;;;4.18;;
56927;SDS011;60850;52.502;13.426;2023-11-21T07:46:55;6.82;;;3.50;;
56927;SDS011;60850;52.502;13.426;2023-11-21T07:49:23;7.05;;;3.22;;
56927;SDS011;60850;52.502;13.426;2023-11-21T07:51:51;9.55;;;3.72;;
56927;SDS011;60850;52.502;13.426;2023-11-21T07:54:18;6.95;;;3.60;;
56927;SDS011;60850;52.502;13.426;2023-11-21T07:56:46;6.60;;;3.83;;
56927;SDS011;60850;52.502;13.426;2023-11-21T07:59:13;7.88;;;4.10;;
56927;SDS011;60850;52.502;13.426;2023-11-21T08:01:40;6.72;;;3.65;;
56927;SDS011;60850;52.502;13.426;2023-11-21T08:04:08;5.80;;;3.25;;
56927;SDS011;60850;52.502;13.426;2023-11-21T08:06:35;10.10;;;4.57;;
56927;SDS011;60850;52.502;13.426;2023-11-21T08:09:04;6.82;;;3.10;;
56927;SDS011;60850;52.502;13.426;2023-11-21T08:11:33;6.95;;;3.53;;
56927;SDS011;60850;52.502;13.426;2023-11-21T08:14:00;8.32;;;3.95;;
56927;SDS011;60850;52.502;13.426;2023-11-21T08:16:28;7.65;;;3.67;;
56927;SDS011;60850;52.502;13.426;2023-11-21T08:18:55;5.88;;;3.42;;
56927;SDS011;60850;52.502;13.426;2023-11-21T08:21:22;10.43;;;3.60;;
56927;SDS011;60850;52.502;13.426;2023-11-21T08:23:50;7.82;;;3.40;;
56927;SDS011;60850;52.502;13.426;2023-11-21T08:26:21;7.85;;;3.50;;
56927;SDS011;60850;52.502;13.426;2023-11-21T08:28:49;8.77;;;3.70;;
56927;SDS011;60850;52.502;13.426;2023-11-21T08:31:17;8.80;;;4.20;;
56927;SDS011;60850;52.502;13.426;2023-11-21T08:33:49;9.00;;;3.30;;
56927;SDS011;60850;52.502;13.426;2023-11-21T08:36:16;8.80;;;3.50;;
56927;SDS011;60850;52.502;13.426;2023-11-21T08:38:43;9.95;;;3.67;;
56927;SDS011;60850;52.502;13.426;2023-11-21T08:41:10;10.63;;;4.43;;
56927;SDS011;60850;52.502;13.426;2023-11-21T08:43:39;13.48;;;4.40;;
56927;SDS011;60850;52.502;13.426;2023-11-21T08:46:06;12.98;;;4.18;;
56927;SDS011;60850;52.502;13.426;2023-11-21T08:48:35;12.13;;;4.28;;
56927;SDS011;60850;52.502;13.426;2023-11-21T08:51:02;15.70;;;5.05;;
56927;SDS011;60850;52.502;13.426;2023-11-21T08:53:30;15.68;;;5.50;;
56927;SDS011;60850;52.502;13.426;2023-11-21T08:55:58;13.88;;;4.82;;
56927;SDS011;60850;52.502;13.426;2023-11-21T08:58:25;15.95;;;4.95;;
56927;SDS011;60850;52.502;13.426;2023-11-21T09:00:53;13.88;;;4.97;;
56927;SDS011;60850;52.502;13.426;2023-11-21T09:03:20;12.57;;;4.93;;
56927;SDS011;60850;52.502;13.426;2023-11-21T09:05:47;15.30;;;4.55;;
56927;SDS011;60850;52.502;13.426;2023-11-21T09:08:14;17.42;;;5.40;;
56927;SDS011;60850;52.502;13.426;2023-11-21T09:10:42;14.43;;;5.07;;
56927;SDS011;60850;52.502;13.426;2023-11-21T09:13:13;11.45;;;4.60;;
56927;SDS011;60850;52.502;13.426;2023-11-21T09:15:42;12.50;;;4.72;;
56927;SDS011;60850;52.502;13.426;2023-11-21T09:18:13;13.82;;;4.57;;
56927;SDS011;60850;52.502;13.426;2023-11-21T09:20:40;14.02;;;4.53;;
56927;SDS011;60850;52.502;13.426;2023-11-21T09:23:08;17.92;;;5.72;;
56927;SDS011;60850;52.502;13.426;2023-11-21T09:25:35;14.32;;;5.22;;
56927;SDS011;60850;52.502;13.426;2023-11-21T09:28:03;16.80;;;5.65;;
56927;SDS011;60850;52.502;13.426;2023-11-21T09:30:33;16.45;;;4.57;;
56927;SDS011;60850;52.502;13.426;2023-11-21T09:33:00;13.38;;;4.60;;
56927;SDS011;60850;52.502;13.426;2023-11-21T09:35:28;9.73;;;2.90;;
56927;SDS011;60850;52.502;13.426;2023-11-21T09:37:55;11.63;;;4.13;;
56927;SDS011;60850;52.502;13.426;2023-11-21T09:40:22;7.85;;;3.20;;
56927;SDS011;60850;52.502;13.426;2023-11-21T09:42:52;9.63;;;4.07;;
56927;SDS011;60850;52.502;13.426;2023-11-21T09:45:24;11.40;;;4.05;;
56927;SDS011;60850;52.502;13.426;2023-11-21T09:47:52;7.90;;;3.15;;
56927;SDS011;60850;52.502;13.426;2023-11-21T09:50:21;8.52;;;3.35;;
56927;SDS011;60850;52.502;13.426;2023-11-21T09:52:57;7.15;;;2.90;;
56927;SDS011;60850;52.502;13.426;2023-11-21T09:55:30;7.65;;;2.83;;
56927;SDS011;60850;52.502;13.426;2023-11-21T09:58:02;7.63;;;2.28;;
56927;SDS011;60850;52.502;13.426;2023-11-21T10:00:32;5.15;;;2.00;;
56927;SDS011;60850;52.502;13.426;2023-11-21T10:03:02;3.75;;;2.22;;
56927;SDS011;60850;52.502;13.426;2023-11-21T10:05:29;5.00;;;2.33;;
56927;SDS011;60850;52.502;13.426;2023-11-21T10:08:01;5.90;;;2.28;;
56927;SDS011;60850;52.502;13.426;2023-11-21T10:10:31;5.13;;;2.20;;
56927;SDS011;60850;52.502;13.426;2023-11-21T10:13:00;5.13;;;2.10;;
56927;SDS011;60850;52.502;13.426;2023-11-21T10:15:31;2.90;;;1.73;;
56927;SDS011;60850;52.502;13.426;2023-11-21T10:18:04;4.18;;;1.60;;
56927;SDS011;60850;52.502;13.426;2023-11-21T10:20:34;5.95;;;2.38;;
56927;SDS011;60850;52.502;13.426;2023-11-21T10:23:04;6.15;;;2.40;;
56927;SDS011;60850;52.502;13.426;2023-11-21T10:25:32;4.75;;;2.20;;
56927;SDS011;60850;52.502;13.426;2023-11-21T10:28:02;4.80;;;2.40;;
56927;SDS011;60850;52.502;13.426;2023-11-21T10:30:32;3.35;;;2.08;;
56927;SDS011;60850;52.502;13.426;2023-11-21T10:33:02;4.75;;;2.35;;
56927;SDS011;60850;52.502;13.426;2023-11-21T10:35:41;3.75;;;2.28;;
56927;SDS011;60850;52.502;13.426;2023-11-21T10:38:13;5.75;;;2.30;;
56927;SDS011;60850;52.502;13.426;2023-11-21T10:40:40;5.13;;;1.98;;
56927;SDS011;60850;52.502;13.426;2023-11-21T10:43:10;3.47;;;2.10;;
56927;SDS011;60850;52.502;13.426;2023-11-21T10:45:38;3.92;;;2.30;;
56927;SDS011;60850;52.502;13.426;2023-11-21T10:48:06;4.25;;;2.75;;
56927;SDS011;60850;52.502;13.426;2023-11-21T10:50:34;3.38;;;2.20;;
56927;SDS011;60850;52.502;13.426;2023-11-21T10:53:02;5.03;;;2.58;;
56927;SDS011;60850;52.502;13.426;2023-11-21T10:55:31;5.18;;;2.65;;
56927;SDS011;60850;52.502;13.426;2023-11-21T10:58:00;3.45;;;2.22;;
56927;SDS011;60850;52.502;13.426;2023-11-21T11:00:30;4.78;;;2.72;;
56927;SDS011;60850;52.502;13.426;2023-11-21T11:02:58;4.55;;;2.33;;
56927;SDS011;60850;52.502;13.426;2023-11-21T11:05:27;7.07;;;2.33;;
56927;SDS011;60850;52.502;13.426;2023-11-21T11:07:57;4.20;;;2.40;;
56927;SDS011;60850;52.502;13.426;2023-11-21T11:10:28;2.90;;;2.13;;
56927;SDS011;60850;52.502;13.426;2023-11-21T11:12:57;4.13;;;2.47;;
56927;SDS011;60850;52.502;13.426;2023-11-21T11:15:25;4.60;;;2.72;;
56927;SDS011;60850;52.502;13.426;2023-11-21T11:17:53;4.07;;;2.60;;
56927;SDS011;60850;52.502;13.426;2023-11-21T11:20:23;6.38;;;3.17;;
56927;SDS011;60850;52.502;13.426;2023-11-21T11:22:59;4.85;;;2.92;;
56927;SDS011;60850;52.502;13.426;2023-11-21T11:28:38;6.70;;;3.17;;
56927;SDS011;60850;52.502;13.426;2023-11-21T11:31:14;5.65;;;2.60;;
56927;SDS011;60850;52.502;13.426;2023-11-21T11:33:52;5.50;;;2.50;;
56927;SDS011;60850;52.502;13.426;2023-11-21T11:36:25;3.65;;;2.45;;
56927;SDS011;60850;52.502;13.426;2023-11-21T11:38:56;4.13;;;2.25;;
56927;SDS011;60850;52.502;13.426;2023-11-21T11:41:26;5.00;;;2.78;;
56927;SDS011;60850;52.502;13.426;2023-11-21T11:43:56;5.63;;;2.78;;
56927;SDS011;60850;52.502;13.426;2023-11-21T11:49:08;6.13;;;2.90;;
56927;SDS011;60850;52.502;13.426;2023-11-21T11:51:36;4.20;;;2.45;;
56927;SDS011;60850;52.502;13.426;2023-11-21T11:54:03;6.07;;;3.03;;
56927;SDS011;60850;52.502;13.426;2023-11-21T11:56:32;5.68;;;2.92;;
56927;SDS011;60850;52.502;13.426;2023-11-21T11:59:04;4.20;;;2.55;;
56927;SDS011;60850;52.502;13.426;2023-11-21T12:01:34;4.88;;;2.75;;
56927;SDS011;60850;52.502;13.426;2023-11-21T12:09:25;3.95;;;2.72;;
56927;SDS011;60850;52.502;13.426;2023-11-21T12:11:54;4.55;;;3.00;;
56927;SDS011;60850;52.502;13.426;2023-11-21T12:14:24;5.57;;;2.85;;
56927;SDS011;60850;52.502;13.426;2023-11-21T12:16:51;4.53;;;2.90;;
56927;SDS011;60850;52.502;13.426;2023-11-21T12:19:19;6.00;;;3.08;;
56927;SDS011;60850;52.502;13.426;2023-11-21T12:21:48;4.50;;;2.55;;
56927;SDS011;60850;52.502;13.426;2023-11-21T12:24:16;4.28;;;2.53;;
56927;SDS011;60850;52.502;13.426;2023-11-21T12:26:43;4.38;;;2.25;;
56927;SDS011;60850;52.502;13.426;2023-11-21T12:29:10;4.22;;;2.25;;
56927;SDS011;60850;52.502;13.426;2023-11-21T12:31:39;4.53;;;2.55;;
56927;SDS011;60850;52.502;13.426;2023-11-21T12:34:07;4.07;;;2.20;;
56927;SDS011;60850;52.502;13.426;2023-11-21T12:36:37;3.92;;;2.25;;
56927;SDS011;60850;52.502;13.426;2023-11-21T12:39:04;4.22;;;2.60;;
56927;SDS011;60850;52.502;13.426;2023-11-21T12:41:31;3.72;;;2.40;;
56927;SDS011;60850;52.502;13.426;2023-11-21T12:43:58;3.72;;;2.10;;
56927;SDS011;60850;52.502;13.426;2023-11-21T12:46:25;6.15;;;2.15;;
56927;SDS011;60850;52.502;13.426;2023-11-21T12:48:57;3.67;;;2.10;;
56927;SDS011;60850;52.502;13.426;2023-11-21T12:51:24;4.10;;;2.10;;
56927;SDS011;60850;52.502;13.426;2023-11-21T12:53:52;4.93;;;2.03;;
56927;SDS011;60850;52.502;13.426;2023-11-21T12:56:20;4.22;;;2.20;;
56927;SDS011;60850;52.502;13.426;2023-11-21T12:58:50;4.05;;;2.30;;
56927;SDS011;60850;52.502;13.426;2023-11-21T13:01:25;5.05;;;2.38;;
56927;SDS011;60850;52.502;13.426;2023-11-21T13:03:54;5.68;;;2.53;;
56927;SDS011;60850;52.502;13.426;2023-11-21T13:06:22;4.35;;;2.50;;
56927;SDS011;60850;52.502;13.426;2023-11-21T13:08:50;4.38;;;2.38;;
56927;SDS011;60850;52.502;13.426;2023-11-21T13:11:18;5.32;;;2.20;;
56927;SDS011;60850;52.502;13.426;2023-11-21T13:13:45;4.00;;;2.30;;
56927;SDS011;60850;52.502;13.426;2023-11-21T13:16:12;3.83;;;2.30;;
56927;SDS011;60850;52.502;13.426;2023-11-21T13:18:41;3.67;;;2.10;;
56927;SDS011;60850;52.502;13.426;2023-11-21T13:21:09;4.82;;;2.92;;
56927;SDS011;60850;52.502;13.426;2023-11-21T13:23:40;4.38;;;2.80;;
56927;SDS011;60850;52.502;13.426;2023-11-21T13:26:08;5.40;;;2.47;;
56927;SDS011;60850;52.502;13.426;2023-11-21T13:28:36;3.75;;;2.30;;
56927;SDS011;60850;52.502;13.426;2023-11-21T13:31:03;4.43;;;2.33;;
56927;SDS011;60850;52.502;13.426;2023-11-21T13:33:46;6.82;;;3.30;;
56927;SDS011;60850;52.502;13.426;2023-11-21T13:36:20;4.80;;;2.60;;
56927;SDS011;60850;52.502;13.426;2023-11-21T13:38:50;7.53;;;3.67;;
56927;SDS011;60850;52.502;13.426;2023-11-21T13:41:19;7.30;;;3.60;;
56927;SDS011;60850;52.502;13.426;2023-11-21T13:43:48;5.53;;;3.35;;
56927;SDS011;60850;52.502;13.426;2023-11-21T13:46:24;7.93;;;3.55;;
56927;SDS011;60850;52.502;13.426;2023-11-21T13:48:51;8.10;;;4.13;;
56927;SDS011;60850;52.502;13.426;2023-11-21T13:51:21;6.50;;;4.15;;
56927;SDS011;60850;52.502;13.426;2023-11-21T13:54:03;9.32;;;4.43;;
56927;SDS011;60850;52.502;13.426;2023-11-21T13:56:34;9.20;;;4.47;;
56927;SDS011;60850;52.502;13.426;2023-11-21T13:59:01;6.55;;;4.25;;
56927;SDS011;60850;52.502;13.426;2023-11-21T14:01:34;8.10;;;4.10;;
56927;SDS011;60850;52.502;13.426;2023-11-21T14:04:19;7.85;;;4.38;;
56927;SDS011;60850;52.502;13.426;2023-11-21T14:07:00;8.13;;;3.83;;
56927;SDS011;60850;52.502;13.426;2023-11-21T14:09:44;7.70;;;4.47;;
56927;SDS011;60850;52.502;13.426;2023-11-21T14:12:10;9.00;;;4.78;;
56927;SDS011;60850;52.502;13.426;2023-11-21T14:14:40;10.75;;;5.30;;
56927;SDS011;60850;52.502;13.426;2023-11-21T14:17:06;10.45;;;5.30;;
56927;SDS011;60850;52.502;13.426;2023-11-21T14:19:36;12.73;;;6.03;;
56927;SDS011;60850;52.502;13.426;2023-11-21T14:22:06;13.63;;;7.10;;
56927;SDS011;60850;52.502;13.426;2023-11-21T14:24:36;13.00;;;6.97;;
56927;SDS011;60850;52.502;13.426;2023-11-21T14:27:08;16.33;;;8.13;;
56927;SDS011;60850;52.502;13.426;2023-11-21T14:29:35;14.98;;;7.88;;
56927;SDS011;60850;52.502;13.426;2023-11-21T14:32:05;16.88;;;8.07;;
56927;SDS011;60850;52.502;13.426;2023-11-21T14:34:32;15.13;;;7.82;;
56927;SDS011;60850;52.502;13.426;2023-11-21T14:36:59;16.92;;;8.63;;
56927;SDS011;60850;52.502;13.426;2023-11-21T14:39:28;16.10;;;8.90;;
56927;SDS011;60850;52.502;13.426;2023-11-21T14:41:55;19.88;;;9.13;;
56927;SDS011;60850;52.502;13.426;2023-11-21T14:44:26;19.02;;;8.48;;